EHRD Airport Information

Runway Information
Runway 06 Length 7218 ft width 148 ft
Elevation 0 ft Threshold 656 ft Heading 57
Runway 24 Length 7218 ft Width 148 ft
Elevation 0 ft Threshold 656 ft Heading 237
Airport Frequencies
Type A/D Name SCHIPHOL Frequency 121.2 MHZ
Type APP Name APP Frequency 127.025 MHZ
Type ATIS Name ATIS Frequency 110.4 MHZ
Type GND Name GND Frequency 122.175 MHZ
Type TWR Name TWR Frequency 118.2 MHZ
Airport Navaids
Type NDB Name Rotterdam Frequency 351 KHZ
Type VOR-DME Name Rotterdam Frequency 110400 KHZ
Airport Weather Information & NOTAM
ADDS - METARS form results

(1429 UTC 24 June 2018)
 
METAR text: EHRD 241425Z AUTO 35010KT 310V050 9999 FEW020 SCT025 OVC029 17/10 Q1024 NOSIG
Conditions at: EHRD (ROTTERDAM AIRPOR, NL) observed 1425 UTC 24 June 2018
Temperature: 17.0°C (63°F)
Dewpoint: 10.0°C (50°F) [RH = 63%]
Pressure (altimeter): 30.24 inches Hg (1024.0 mb)
Winds: from the N (350 degrees) at 12 MPH (10 knots; 5.2 m/s)
Visibility: 6 or more miles (10+ km)
Ceiling: 2900 feet AGL
Clouds: few clouds at 2000 feet AGL
scattered clouds at 2500 feet AGL
overcast cloud deck at 2900 feet AGL
Weather: no significant weather observed at this time

METAR text: EHRD 241355Z AUTO 34010KT 280V030 9999 FEW031 OVC044 18/12 Q1024 NOSIG
Conditions at: EHRD (ROTTERDAM AIRPOR, NL) observed 1355 UTC 24 June 2018
Temperature: 18.0°C (64°F)
Dewpoint: 12.0°C (54°F) [RH = 68%]
Pressure (altimeter): 30.24 inches Hg (1024.0 mb)
Winds: from the NNW (340 degrees) at 12 MPH (10 knots; 5.2 m/s)
Visibility: 6 or more miles (10+ km)
Ceiling: 4400 feet AGL
Clouds: few clouds at 3100 feet AGL
overcast cloud deck at 4400 feet AGL
Weather: no significant weather observed at this time